sensor_id;sensor_type;location;lat;lon;timestamp;pressure;altitude;pressure_sealevel;temperature;humidity
51249;BME280;39642;47.556;18.728;2022-11-14T00:00:58;100717.34;;;21.13;40.50
51249;BME280;39642;47.556;18.728;2022-11-14T00:03:24;100704.09;;;21.13;40.42
51249;BME280;39642;47.556;18.728;2022-11-14T00:05:50;100710.31;;;21.12;40.28
51249;BME280;39642;47.556;18.728;2022-11-14T00:08:21;100704.25;;;21.10;40.34
51249;BME280;39642;47.556;18.728;2022-11-14T00:10:49;100706.78;;;21.12;40.41
51249;BME280;39642;47.556;18.728;2022-11-14T00:13:16;100704.25;;;21.10;40.38
51249;BME280;39642;47.556;18.728;2022-11-14T00:15:43;100709.53;;;21.10;40.31
51249;BME280;39642;47.556;18.728;2022-11-14T00:18:09;100707.75;;;21.11;40.49
51249;BME280;39642;47.556;18.728;2022-11-14T00:20:35;100718.34;;;21.11;40.25
51249;BME280;39642;47.556;18.728;2022-11-14T00:23:01;100712.19;;;21.10;40.63
51249;BME280;39642;47.556;18.728;2022-11-14T00:25:27;100709.53;;;21.10;40.68
51249;BME280;39642;47.556;18.728;2022-11-14T00:27:56;100720.12;;;21.10;40.48
51249;BME280;39642;47.556;18.728;2022-11-14T00:30:22;100716.62;;;21.10;40.50
51249;BME280;39642;47.556;18.728;2022-11-14T00:32:48;100717.47;;;21.10;40.28
51249;BME280;39642;47.556;18.728;2022-11-14T00:35:14;100716.62;;;21.10;40.48
51249;BME280;39642;47.556;18.728;2022-11-14T00:37:39;100720.12;;;21.10;40.50
51249;BME280;39642;47.556;18.728;2022-11-14T00:40:06;100723.62;;;21.11;40.34
51249;BME280;39642;47.556;18.728;2022-11-14T00:42:32;100719.19;;;21.11;40.27
51249;BME280;39642;47.556;18.728;2022-11-14T00:44:59;100715.63;;;21.12;40.34
51249;BME280;39642;47.556;18.728;2022-11-14T00:47:25;100711.19;;;21.13;40.38
51249;BME280;39642;47.556;18.728;2022-11-14T00:49:50;100713.84;;;21.13;40.40
51249;BME280;39642;47.556;18.728;2022-11-14T00:52:16;100720.84;;;21.14;40.16
51249;BME280;39642;47.556;18.728;2022-11-14T00:54:42;100718.19;;;21.14;40.31
51249;BME280;39642;47.556;18.728;2022-11-14T00:57:08;100715.53;;;21.14;40.30
51249;BME280;39642;47.556;18.728;2022-11-14T00:59:34;100715.53;;;21.14;40.11
51249;BME280;39642;47.556;18.728;2022-11-14T01:02:00;100723.47;;;21.14;40.20
51249;BME280;39642;47.556;18.728;2022-11-14T01:04:26;100711.13;;;21.14;40.09
51249;BME280;39642;47.556;18.728;2022-11-14T01:06:52;100710.22;;;21.14;40.17
51249;BME280;39642;47.556;18.728;2022-11-14T01:09:18;100717.34;;;21.13;40.13
51249;BME280;39642;47.556;18.728;2022-11-14T01:11:44;100711.13;;;21.14;40.23
51249;BME280;39642;47.556;18.728;2022-11-14T01:14:10;100709.38;;;21.13;39.84
51249;BME280;39642;47.556;18.728;2022-11-14T01:16:36;100697.94;;;21.13;39.88
51249;BME280;39642;47.556;18.728;2022-11-14T01:19:03;100698.78;;;21.13;39.82
51249;BME280;39642;47.556;18.728;2022-11-14T01:21:29;100703.25;;;21.13;39.86
51249;BME280;39642;47.556;18.728;2022-11-14T01:23:55;100696.22;;;21.12;40.21
51249;BME280;39642;47.556;18.728;2022-11-14T01:26:21;100702.38;;;21.12;39.81
51249;BME280;39642;47.556;18.728;2022-11-14T01:28:47;100699.78;;;21.11;39.85
51249;BME280;39642;47.556;18.728;2022-11-14T01:31:18;100695.34;;;21.11;40.12
51249;BME280;39642;47.556;18.728;2022-11-14T01:33:48;100697.16;;;21.11;39.87
51249;BME280;39642;47.556;18.728;2022-11-14T01:36:14;100694.50;;;21.11;40.26
51249;BME280;39642;47.556;18.728;2022-11-14T01:38:40;100698.09;;;21.10;39.91
51249;BME280;39642;47.556;18.728;2022-11-14T01:41:06;100687.50;;;21.10;40.20
51249;BME280;39642;47.556;18.728;2022-11-14T01:43:33;100686.62;;;21.09;40.03
51249;BME280;39642;47.556;18.728;2022-11-14T01:48:48;100675.19;;;21.09;39.97
51249;BME280;39642;47.556;18.728;2022-11-14T01:53:37;100670.72;;;21.09;40.29
51249;BME280;39642;47.556;18.728;2022-11-14T01:56:05;100671.63;;;21.10;39.62
51249;BME280;39642;47.556;18.728;2022-11-14T01:58:34;100674.31;;;21.08;39.92
51249;BME280;39642;47.556;18.728;2022-11-14T02:01:01;100673.38;;;21.09;39.63
51249;BME280;39642;47.556;18.728;2022-11-14T02:03:27;100677.75;;;21.10;39.88
51249;BME280;39642;47.556;18.728;2022-11-14T02:05:54;100678.63;;;21.11;39.99
51249;BME280;39642;47.556;18.728;2022-11-14T02:08:21;100675.13;;;21.10;39.82
51249;BME280;39642;47.556;18.728;2022-11-14T02:10:48;100673.25;;;21.12;39.86
51249;BME280;39642;47.556;18.728;2022-11-14T02:13:14;100671.53;;;21.11;40.00
51249;BME280;39642;47.556;18.728;2022-11-14T02:15:40;100669.72;;;21.12;39.84
51249;BME280;39642;47.556;18.728;2022-11-14T02:18:05;100667.97;;;21.12;39.86
51249;BME280;39642;47.556;18.728;2022-11-14T02:20:37;100665.31;;;21.12;39.87
51249;BME280;39642;47.556;18.728;2022-11-14T02:23:09;100670.59;;;21.12;39.54
51249;BME280;39642;47.556;18.728;2022-11-14T02:25:36;100675.91;;;21.12;39.58
51249;BME280;39642;47.556;18.728;2022-11-14T02:28:03;100689.16;;;21.12;39.67
51249;BME280;39642;47.556;18.728;2022-11-14T02:30:30;100675.91;;;21.12;39.59
51249;BME280;39642;47.556;18.728;2022-11-14T02:32:56;100675.97;;;21.11;39.46
51249;BME280;39642;47.556;18.728;2022-11-14T02:35:21;100679.47;;;21.11;39.54
51249;BME280;39642;47.556;18.728;2022-11-14T02:37:47;100678.63;;;21.11;39.48
51249;BME280;39642;47.556;18.728;2022-11-14T02:40:13;100679.47;;;21.11;39.02
51249;BME280;39642;47.556;18.728;2022-11-14T02:42:39;100683.06;;;21.10;39.29
51249;BME280;39642;47.556;18.728;2022-11-14T02:45:06;100686.56;;;21.11;39.39
51249;BME280;39642;47.556;18.728;2022-11-14T02:47:32;100682.19;;;21.10;39.16
51249;BME280;39642;47.556;18.728;2022-11-14T02:49:57;100683.06;;;21.10;39.01
51249;BME280;39642;47.556;18.728;2022-11-14T02:52:23;100684.84;;;21.10;39.22
51249;BME280;39642;47.556;18.728;2022-11-14T02:54:49;100676.03;;;21.09;39.14
51249;BME280;39642;47.556;18.728;2022-11-14T02:57:15;100676.03;;;21.09;39.37
51249;BME280;39642;47.556;18.728;2022-11-14T02:59:41;100675.19;;;21.09;39.44
51249;BME280;39642;47.556;18.728;2022-11-14T03:02:07;100667.22;;;21.09;39.52
51249;BME280;39642;47.556;18.728;2022-11-14T03:04:33;100669.88;;;21.09;39.69
51249;BME280;39642;47.556;18.728;2022-11-14T03:06:58;100673.38;;;21.09;39.59
51249;BME280;39642;47.556;18.728;2022-11-14T03:09:24;100674.25;;;21.10;39.78
51249;BME280;39642;47.556;18.728;2022-11-14T03:11:50;100669.81;;;21.10;39.48
51249;BME280;39642;47.556;18.728;2022-11-14T03:14:16;100668.88;;;21.11;39.97
51249;BME280;39642;47.556;18.728;2022-11-14T03:16:42;100670.59;;;21.12;39.72
51249;BME280;39642;47.556;18.728;2022-11-14T03:19:08;100672.31;;;21.13;39.63
51249;BME280;39642;47.556;18.728;2022-11-14T03:21:33;100667.00;;;21.13;39.83
51249;BME280;39642;47.556;18.728;2022-11-14T03:23:59;100671.47;;;21.13;38.95
51249;BME280;39642;47.556;18.728;2022-11-14T03:26:25;100664.37;;;21.13;39.66
51249;BME280;39642;47.556;18.728;2022-11-14T03:28:51;100664.37;;;21.13;39.51
51249;BME280;39642;47.556;18.728;2022-11-14T03:31:19;100654.63;;;21.14;39.19
51249;BME280;39642;47.556;18.728;2022-11-14T03:33:45;100654.63;;;21.14;39.14
51249;BME280;39642;47.556;18.728;2022-11-14T03:36:11;100653.78;;;21.13;39.16
51249;BME280;39642;47.556;18.728;2022-11-14T03:38:37;100661.72;;;21.13;38.63
51249;BME280;39642;47.556;18.728;2022-11-14T03:41:03;100664.37;;;21.13;39.01
51249;BME280;39642;47.556;18.728;2022-11-14T03:43:31;100670.50;;;21.14;39.22
51249;BME280;39642;47.556;18.728;2022-11-14T03:45:59;100667.00;;;21.13;38.84
51249;BME280;39642;47.556;18.728;2022-11-14T03:48:25;100660.87;;;21.13;38.69
51249;BME280;39642;47.556;18.728;2022-11-14T03:50:51;100660.87;;;21.13;38.63
51249;BME280;39642;47.556;18.728;2022-11-14T03:53:17;100665.38;;;21.11;38.83
51249;BME280;39642;47.556;18.728;2022-11-14T03:55:43;100672.38;;;21.12;38.94
51249;BME280;39642;47.556;18.728;2022-11-14T03:58:09;100658.28;;;21.11;39.09
51249;BME280;39642;47.556;18.728;2022-11-14T04:00:35;100655.72;;;21.10;38.73
51249;BME280;39642;47.556;18.728;2022-11-14T04:03:01;100666.31;;;21.10;39.09
51249;BME280;39642;47.556;18.728;2022-11-14T04:05:27;100651.34;;;21.09;39.03
51249;BME280;39642;47.556;18.728;2022-11-14T04:07:53;100654.84;;;21.09;39.01
51249;BME280;39642;47.556;18.728;2022-11-14T04:10:19;100648.69;;;21.09;38.71
51249;BME280;39642;47.556;18.728;2022-11-14T04:12:49;100645.12;;;21.10;38.60
51249;BME280;39642;47.556;18.728;2022-11-14T04:15:16;100641.59;;;21.09;38.70
51249;BME280;39642;47.556;18.728;2022-11-14T04:17:43;100641.59;;;21.09;39.40
51249;BME280;39642;47.556;18.728;2022-11-14T04:20:09;100638.88;;;21.11;39.44
51249;BME280;39642;47.556;18.728;2022-11-14T04:22:35;100637.19;;;21.10;39.03
51249;BME280;39642;47.556;18.728;2022-11-14T04:25:02;100637.19;;;21.10;39.34
51249;BME280;39642;47.556;18.728;2022-11-14T04:27:28;100642.38;;;21.11;39.77
51249;BME280;39642;47.556;18.728;2022-11-14T04:29:54;100638.81;;;21.12;39.87
51249;BME280;39642;47.556;18.728;2022-11-14T04:32:19;100629.09;;;21.13;39.45
51249;BME280;39642;47.556;18.728;2022-11-14T04:34:45;100629.09;;;21.13;39.47
51249;BME280;39642;47.556;18.728;2022-11-14T04:37:12;100620.19;;;21.14;39.24
51249;BME280;39642;47.556;18.728;2022-11-14T04:39:37;100620.19;;;21.14;38.85
51249;BME280;39642;47.556;18.728;2022-11-14T04:42:03;100618.44;;;21.14;38.76
51249;BME280;39642;47.556;18.728;2022-11-14T04:44:29;100616.69;;;21.13;38.85
51249;BME280;39642;47.556;18.728;2022-11-14T04:46:55;100616.69;;;21.13;38.93
51249;BME280;39642;47.556;18.728;2022-11-14T04:49:21;100605.25;;;21.13;38.69
51249;BME280;39642;47.556;18.728;2022-11-14T04:51:48;100608.75;;;21.13;39.09
51249;BME280;39642;47.556;18.728;2022-11-14T04:54:14;100606.09;;;21.13;38.53
51249;BME280;39642;47.556;18.728;2022-11-14T04:56:40;100596.47;;;21.12;38.86
51249;BME280;39642;47.556;18.728;2022-11-14T04:59:06;100592.87;;;21.13;38.85
51249;BME280;39642;47.556;18.728;2022-11-14T05:01:32;100588.50;;;21.12;38.27
51249;BME280;39642;47.556;18.728;2022-11-14T05:03:58;100591.16;;;21.12;38.31
51249;BME280;39642;47.556;18.728;2022-11-14T05:06:24;100589.44;;;21.11;38.83
51249;BME280;39642;47.556;18.728;2022-11-14T05:08:50;100592.06;;;21.11;38.98
51249;BME280;39642;47.556;18.728;2022-11-14T05:11:18;100591.22;;;21.11;38.87
51249;BME280;39642;47.556;18.728;2022-11-14T05:13:45;100589.44;;;21.11;39.29
51249;BME280;39642;47.556;18.728;2022-11-14T05:16:11;100589.44;;;21.11;38.88
51249;BME280;39642;47.556;18.728;2022-11-14T05:18:37;100585.87;;;21.12;38.24
51249;BME280;39642;47.556;18.728;2022-11-14T05:21:04;100589.44;;;21.11;38.33
51249;BME280;39642;47.556;18.728;2022-11-14T05:23:30;100585.87;;;21.12;38.42
51249;BME280;39642;47.556;18.728;2022-11-14T05:26:08;100588.50;;;21.12;38.57
51249;BME280;39642;47.556;18.728;2022-11-14T05:28:34;100581.41;;;21.13;38.53
51249;BME280;39642;47.556;18.728;2022-11-14T05:31:08;100584.00;;;21.14;38.22
51249;BME280;39642;47.556;18.728;2022-11-14T05:33:34;100581.34;;;21.14;38.18
51249;BME280;39642;47.556;18.728;2022-11-14T05:36:07;100580.41;;;21.15;38.39
51249;BME280;39642;47.556;18.728;2022-11-14T05:38:34;100578.53;;;21.17;37.57
51249;BME280;39642;47.556;18.728;2022-11-14T05:41:11;100579.41;;;21.18;37.66
51249;BME280;39642;47.556;18.728;2022-11-14T05:43:38;100583.69;;;21.20;36.95
51249;BME280;39642;47.556;18.728;2022-11-14T05:46:06;100579.16;;;21.23;37.55
51249;BME280;39642;47.556;18.728;2022-11-14T05:48:33;100589.53;;;21.27;40.04
51249;BME280;39642;47.556;18.728;2022-11-14T05:51:01;100588.53;;;21.30;40.33
51249;BME280;39642;47.556;18.728;2022-11-14T05:53:28;100593.75;;;21.31;39.95
51249;BME280;39642;47.556;18.728;2022-11-14T05:55:59;100591.09;;;21.31;37.65
51249;BME280;39642;47.556;18.728;2022-11-14T05:58:26;100597.25;;;21.32;37.11
51249;BME280;39642;47.556;18.728;2022-11-14T06:00:52;100595.41;;;21.34;37.79
51249;BME280;39642;47.556;18.728;2022-11-14T06:03:17;100591.81;;;21.35;37.64
51249;BME280;39642;47.556;18.728;2022-11-14T06:05:43;100589.97;;;21.37;37.71
51249;BME280;39642;47.556;18.728;2022-11-14T06:08:09;100589.78;;;21.40;38.04
51249;BME280;39642;47.556;18.728;2022-11-14T06:10:35;100594.19;;;21.41;38.05
51249;BME280;39642;47.556;18.728;2022-11-14T06:13:01;100594.97;;;21.43;38.74
51249;BME280;39642;47.556;18.728;2022-11-14T06:15:27;100601.06;;;21.45;39.04
51249;BME280;39642;47.556;18.728;2022-11-14T06:17:53;100602.69;;;21.48;39.26
51249;BME280;39642;47.556;18.728;2022-11-14T06:20:20;100613.16;;;21.51;40.31
51249;BME280;39642;47.556;18.728;2022-11-14T06:22:48;100615.63;;;21.54;40.75
51249;BME280;39642;47.556;18.728;2022-11-14T06:25:14;100617.28;;;21.56;40.15
51249;BME280;39642;47.556;18.728;2022-11-14T06:27:40;100610.09;;;21.58;40.25
51249;BME280;39642;47.556;18.728;2022-11-14T06:30:07;100622.28;;;21.62;40.49
51249;BME280;39642;47.556;18.728;2022-11-14T06:32:33;100618.62;;;21.65;40.23
51249;BME280;39642;47.556;18.728;2022-11-14T06:34:58;100619.22;;;21.70;39.62
51249;BME280;39642;47.556;18.728;2022-11-14T06:37:24;100616.69;;;21.69;39.05
51249;BME280;39642;47.556;18.728;2022-11-14T06:39:50;100617.69;;;21.66;39.25
51249;BME280;39642;47.556;18.728;2022-11-14T06:42:16;100629.22;;;21.65;39.25
51249;BME280;39642;47.556;18.728;2022-11-14T06:44:42;100635.47;;;21.64;39.57
51249;BME280;39642;47.556;18.728;2022-11-14T06:47:08;100640.91;;;21.61;38.72
51249;BME280;39642;47.556;18.728;2022-11-14T06:49:34;100634.03;;;21.57;38.50
51249;BME280;39642;47.556;18.728;2022-11-14T06:52:00;100632.50;;;21.53;38.33
51249;BME280;39642;47.556;18.728;2022-11-14T06:54:26;100622.25;;;21.45;36.89
51249;BME280;39642;47.556;18.728;2022-11-14T06:56:51;100621.47;;;21.43;37.33
51249;BME280;39642;47.556;18.728;2022-11-14T06:59:17;100623.37;;;21.39;38.24
51249;BME280;39642;47.556;18.728;2022-11-14T07:01:43;100620.69;;;21.41;38.75
51249;BME280;39642;47.556;18.728;2022-11-14T07:04:09;100627.78;;;21.40;38.50
51249;BME280;39642;47.556;18.728;2022-11-14T07:06:35;100629.59;;;21.38;37.83
51249;BME280;39642;47.556;18.728;2022-11-14T07:09:01;100635.75;;;21.39;38.47
51249;BME280;39642;47.556;18.728;2022-11-14T07:11:27;100633.91;;;21.41;38.30
51249;BME280;39642;47.556;18.728;2022-11-14T07:13:58;100633.91;;;21.41;38.30
51249;BME280;39642;47.556;18.728;2022-11-14T07:16:30;100635.59;;;21.44;38.22
51249;BME280;39642;47.556;18.728;2022-11-14T07:18:57;100633.78;;;21.44;38.47
51249;BME280;39642;47.556;18.728;2022-11-14T07:21:25;100634.59;;;21.46;38.68
51249;BME280;39642;47.556;18.728;2022-11-14T07:23:51;100630.13;;;21.47;38.60
51249;BME280;39642;47.556;18.728;2022-11-14T07:26:17;100630.91;;;21.49;38.27
51249;BME280;39642;47.556;18.728;2022-11-14T07:28:44;100636.13;;;21.50;37.78
51249;BME280;39642;47.556;18.728;2022-11-14T07:31:12;100629.12;;;21.49;38.62
51249;BME280;39642;47.556;18.728;2022-11-14T07:33:39;100629.91;;;21.51;38.49
51249;BME280;39642;47.556;18.728;2022-11-14T07:36:07;100636.00;;;21.53;38.67
51249;BME280;39642;47.556;18.728;2022-11-14T07:38:35;100631.47;;;21.55;38.85
51249;BME280;39642;47.556;18.728;2022-11-14T07:41:13;100636.78;;;21.55;38.69
51249;BME280;39642;47.556;18.728;2022-11-14T07:43:40;100636.69;;;21.57;37.96
51249;BME280;39642;47.556;18.728;2022-11-14T07:46:10;100626.97;;;21.57;37.99
51249;BME280;39642;47.556;18.728;2022-11-14T07:48:36;100626.84;;;21.59;37.58
51249;BME280;39642;47.556;18.728;2022-11-14T07:51:05;100619.69;;;21.61;38.02
51249;BME280;39642;47.556;18.728;2022-11-14T07:53:31;100622.44;;;21.59;37.03
51249;BME280;39642;47.556;18.728;2022-11-14T07:56:06;100625.94;;;21.60;37.48
51249;BME280;39642;47.556;18.728;2022-11-14T07:58:35;100628.44;;;21.63;37.62
51249;BME280;39642;47.556;18.728;2022-11-14T08:01:02;100630.63;;;21.72;38.26
51249;BME280;39642;47.556;18.728;2022-11-14T08:03:29;100624.94;;;21.80;38.17
51249;BME280;39642;47.556;18.728;2022-11-14T08:06:02;100617.69;;;21.83;39.21
51249;BME280;39642;47.556;18.728;2022-11-14T08:08:28;100622.91;;;21.85;38.94
51249;BME280;39642;47.556;18.728;2022-11-14T08:10:56;100626.47;;;21.84;39.03
51249;BME280;39642;47.556;18.728;2022-11-14T08:13:22;100621.19;;;21.84;38.52
51249;BME280;39642;47.556;18.728;2022-11-14T08:15:48;100623.81;;;21.84;38.22
51249;BME280;39642;47.556;18.728;2022-11-14T08:20:40;100622.91;;;21.85;38.37
51249;BME280;39642;47.556;18.728;2022-11-14T08:23:06;100621.19;;;21.84;38.41
51249;BME280;39642;47.556;18.728;2022-11-14T08:25:32;100618.53;;;21.84;38.55
51249;BME280;39642;47.556;18.728;2022-11-14T08:27:58;100613.31;;;21.82;38.79
51249;BME280;39642;47.556;18.728;2022-11-14T08:30:24;100612.38;;;21.83;38.82
51249;BME280;39642;47.556;18.728;2022-11-14T08:32:50;100611.53;;;21.83;38.61
51249;BME280;39642;47.556;18.728;2022-11-14T08:35:16;100600.13;;;21.81;38.97
51249;BME280;39642;47.556;18.728;2022-11-14T08:37:42;100606.28;;;21.81;38.98
51249;BME280;39642;47.556;18.728;2022-11-14T08:40:08;100600.13;;;21.81;39.25
51249;BME280;39642;47.556;18.728;2022-11-14T08:42:35;100598.44;;;21.80;39.33
51249;BME280;39642;47.556;18.728;2022-11-14T08:45:01;100605.59;;;21.78;38.84
51249;BME280;39642;47.556;18.728;2022-11-14T08:47:27;100606.63;;;21.75;38.56
51249;BME280;39642;47.556;18.728;2022-11-14T08:49:53;100600.44;;;21.75;38.94
51249;BME280;39642;47.556;18.728;2022-11-14T08:52:20;100605.75;;;21.75;38.58
51249;BME280;39642;47.556;18.728;2022-11-14T08:54:46;100603.19;;;21.73;38.81
51249;BME280;39642;47.556;18.728;2022-11-14T08:57:12;100604.09;;;21.72;39.34
51249;BME280;39642;47.556;18.728;2022-11-14T08:59:40;100604.09;;;21.72;40.28
51249;BME280;39642;47.556;18.728;2022-11-14T09:02:12;100606.69;;;21.74;40.57
51249;BME280;39642;47.556;18.728;2022-11-14T09:04:38;100604.88;;;21.74;41.03
51249;BME280;39642;47.556;18.728;2022-11-14T09:07:05;100603.97;;;21.75;40.16
51249;BME280;39642;47.556;18.728;2022-11-14T09:09:31;100603.09;;;21.75;40.13
51249;BME280;39642;47.556;18.728;2022-11-14T09:11:57;100606.69;;;21.74;39.95
51249;BME280;39642;47.556;18.728;2022-11-14T09:14:23;100604.03;;;21.74;40.21
51249;BME280;39642;47.556;18.728;2022-11-14T09:16:49;100601.38;;;21.74;40.40
51249;BME280;39642;47.556;18.728;2022-11-14T09:19:15;100604.03;;;21.74;40.40
51249;BME280;39642;47.556;18.728;2022-11-14T09:21:41;100612.91;;;21.73;40.63
51249;BME280;39642;47.556;18.728;2022-11-14T09:24:07;100603.25;;;21.72;40.63
51249;BME280;39642;47.556;18.728;2022-11-14T09:26:33;100599.81;;;21.70;40.63
51249;BME280;39642;47.556;18.728;2022-11-14T09:28:59;100595.47;;;21.69;40.61
51249;BME280;39642;47.556;18.728;2022-11-14T09:31:26;100593.75;;;21.68;40.43
51249;BME280;39642;47.556;18.728;2022-11-14T09:33:52;100600.00;;;21.67;40.43
51249;BME280;39642;47.556;18.728;2022-11-14T09:36:18;100592.03;;;21.67;40.30
51249;BME280;39642;47.556;18.728;2022-11-14T09:38:45;100592.81;;;21.69;40.67
51249;BME280;39642;47.556;18.728;2022-11-14T09:41:26;100587.34;;;21.72;40.44
51249;BME280;39642;47.556;18.728;2022-11-14T09:47:07;100575.66;;;21.76;39.84
51249;BME280;39642;47.556;18.728;2022-11-14T09:49:43;100576.50;;;21.76;41.34
51249;BME280;39642;47.556;18.728;2022-11-14T09:52:37;100576.44;;;21.78;41.15
51249;BME280;39642;47.556;18.728;2022-11-14T09:55:19;100567.66;;;21.77;40.56
51249;BME280;39642;47.556;18.728;2022-11-14T09:57:46;100570.50;;;21.73;41.30
51249;BME280;39642;47.556;18.728;2022-11-14T10:00:20;100561.09;;;21.67;41.35
51249;BME280;39642;47.556;18.728;2022-11-14T10:05:41;100562.87;;;21.67;41.95
51249;BME280;39642;47.556;18.728;2022-11-14T10:08:13;100551.44;;;21.66;41.76
51249;BME280;39642;47.556;18.728;2022-11-14T10:10:47;100555.72;;;21.69;41.78
51249;BME280;39642;47.556;18.728;2022-11-14T10:19:26;100545.13;;;21.69;42.11
51249;BME280;39642;47.556;18.728;2022-11-14T10:22:03;100545.97;;;21.69;42.45
51249;BME280;39642;47.556;18.728;2022-11-14T10:27:27;100535.44;;;21.68;40.75
51249;BME280;39642;47.556;18.728;2022-11-14T10:30:08;100534.56;;;21.67;41.68
51249;BME280;39642;47.556;18.728;2022-11-14T10:35:26;100529.22;;;21.69;41.08
51249;BME280;39642;47.556;18.728;2022-11-14T10:38:03;100525.69;;;21.68;41.19
51249;BME280;39642;47.556;18.728;2022-11-14T10:46:00;100524.69;;;21.71;40.65
51249;BME280;39642;47.556;18.728;2022-11-14T10:48:41;100522.03;;;21.71;40.94
51249;BME280;39642;47.556;18.728;2022-11-14T10:51:24;100521.09;;;21.72;41.15
51249;BME280;39642;47.556;18.728;2022-11-14T10:54:04;100512.34;;;21.70;40.22
51249;BME280;39642;47.556;18.728;2022-11-14T10:56:32;100509.78;;;21.68;40.80
51249;BME280;39642;47.556;18.728;2022-11-14T10:58:57;100500.06;;;21.69;40.36
51249;BME280;39642;47.556;18.728;2022-11-14T11:01:40;100492.78;;;21.72;40.80
51249;BME280;39642;47.556;18.728;2022-11-14T11:06:53;100493.41;;;21.77;40.22
51249;BME280;39642;47.556;18.728;2022-11-14T11:09:26;100492.41;;;21.80;40.92
51249;BME280;39642;47.556;18.728;2022-11-14T11:12:18;100493.00;;;21.85;40.88
51249;BME280;39642;47.556;18.728;2022-11-14T11:14:46;100481.44;;;21.86;40.90
51249;BME280;39642;47.556;18.728;2022-11-14T11:17:18;100480.66;;;21.84;40.23
51249;BME280;39642;47.556;18.728;2022-11-14T11:19:47;100480.78;;;21.82;40.03
51249;BME280;39642;47.556;18.728;2022-11-14T11:22:36;100476.31;;;21.83;40.16
51249;BME280;39642;47.556;18.728;2022-11-14T11:25:25;100470.16;;;21.82;40.15
51249;BME280;39642;47.556;18.728;2022-11-14T11:28:08;100470.16;;;21.82;40.49
51249;BME280;39642;47.556;18.728;2022-11-14T11:30:36;100451.59;;;21.82;40.30
51249;BME280;39642;47.556;18.728;2022-11-14T11:35:41;100457.75;;;21.83;41.75
51249;BME280;39642;47.556;18.728;2022-11-14T11:38:08;100460.22;;;21.86;41.50
51249;BME280;39642;47.556;18.728;2022-11-14T11:40:36;100460.22;;;21.86;41.33
51249;BME280;39642;47.556;18.728;2022-11-14T11:45:46;100457.50;;;21.88;41.96
51249;BME280;39642;47.556;18.728;2022-11-14T11:48:30;100450.59;;;21.85;42.18
51249;BME280;39642;47.556;18.728;2022-11-14T11:51:00;100449.88;;;21.81;42.82
51249;BME280;39642;47.556;18.728;2022-11-14T11:53:28;100442.09;;;21.78;42.88
51249;BME280;39642;47.556;18.728;2022-11-14T11:56:04;100435.84;;;21.79;42.91
51249;BME280;39642;47.556;18.728;2022-11-14T11:58:42;100435.00;;;21.79;42.98
51249;BME280;39642;47.556;18.728;2022-11-14T12:01:10;100431.50;;;21.78;42.77
51249;BME280;39642;47.556;18.728;2022-11-14T12:03:37;100428.06;;;21.76;43.02
51249;BME280;39642;47.556;18.728;2022-11-14T12:08:38;100418.66;;;21.71;43.44
51249;BME280;39642;47.556;18.728;2022-11-14T12:11:12;100408.06;;;21.71;43.57
51249;BME280;39642;47.556;18.728;2022-11-14T12:13:49;100407.19;;;21.70;43.77
51249;BME280;39642;47.556;18.728;2022-11-14T12:30:48;100380.59;;;21.72;45.97
51249;BME280;39642;47.556;18.728;2022-11-14T12:33:31;100371.63;;;21.74;46.09
51249;BME280;39642;47.556;18.728;2022-11-14T12:36:01;100376.94;;;21.74;45.01
51249;BME280;39642;47.556;18.728;2022-11-14T12:38:33;100372.47;;;21.75;45.49
51249;BME280;39642;47.556;18.728;2022-11-14T12:41:05;100370.44;;;21.80;46.45
51249;BME280;39642;47.556;18.728;2022-11-14T12:46:05;100364.78;;;21.86;46.17
51249;BME280;39642;47.556;18.728;2022-11-14T12:48:45;100360.50;;;21.83;45.72
51249;BME280;39642;47.556;18.728;2022-11-14T12:53:51;100353.84;;;21.76;45.54
51249;BME280;39642;47.556;18.728;2022-11-14T13:02:39;100349.75;;;21.71;46.46
51249;BME280;39642;47.556;18.728;2022-11-14T13:05:27;100343.50;;;21.72;46.62
51249;BME280;39642;47.556;18.728;2022-11-14T13:14:19;100336.06;;;21.62;45.48
51249;BME280;39642;47.556;18.728;2022-11-14T13:35:47;100327.25;;;21.62;45.27
51249;BME280;39642;47.556;18.728;2022-11-14T13:47:07;100306.81;;;21.64;45.26
51249;BME280;39642;47.556;18.728;2022-11-14T13:52:13;100302.13;;;21.69;45.66
51249;BME280;39642;47.556;18.728;2022-11-14T13:54:49;100301.94;;;21.72;46.03
51249;BME280;39642;47.556;18.728;2022-11-14T13:57:37;100298.25;;;21.75;45.77
51249;BME280;39642;47.556;18.728;2022-11-14T14:00:17;100303.47;;;21.76;46.54
51249;BME280;39642;47.556;18.728;2022-11-14T14:08:07;100297.00;;;21.82;48.06
51249;BME280;39642;47.556;18.728;2022-11-14T14:13:32;100298.78;;;21.81;46.18
51249;BME280;39642;47.556;18.728;2022-11-14T14:19:00;100299.66;;;21.82;45.63
51249;BME280;39642;47.556;18.728;2022-11-14T14:21:40;100298.78;;;21.81;46.76
51249;BME280;39642;47.556;18.728;2022-11-14T14:24:34;100293.22;;;21.86;48.96
51249;BME280;39642;47.556;18.728;2022-11-14T14:27:23;100295.59;;;21.91;49.43
51249;BME280;39642;47.556;18.728;2022-11-14T14:30:14;100287.56;;;21.92;47.63
51249;BME280;39642;47.556;18.728;2022-11-14T14:32:41;100295.59;;;21.91;47.43
51249;BME280;39642;47.556;18.728;2022-11-14T14:35:27;100286.66;;;21.93;49.36
51249;BME280;39642;47.556;18.728;2022-11-14T14:37:55;100279.53;;;21.94;48.28
51249;BME280;39642;47.556;18.728;2022-11-14T14:40:27;100290.16;;;21.94;49.25
51249;BME280;39642;47.556;18.728;2022-11-14T14:42:54;100284.00;;;21.93;48.95